Time;durP1;ratioP1;P1;durP2;ratioP2;P2;SDS_P1;SDS_P2;PMS_P1;PMS_P2;Temp;Humidity;BMP_temperature;BMP_pressure;BME280_temperature;BME280_humidity;BME280_pressure;Samples;Min_cycle;Max_cycle;Signal;HPM_P1;HPM_P2
2022/10/03 00:02:43;;;;;;;0.00;0.00;;;17.10;87.60;;;;;;4083097;28;20186;-67
2022/10/03 00:05:37;;;;;;;0.00;0.00;;;17.10;87.80;;;;;;4095572;28;20071;-66
2022/10/03 00:08:30;;;;;;;0.00;0.00;;;17.10;87.90;;;;;;4096259;28;20557;-67
2022/10/03 00:11:23;;;;;;;0.00;0.00;;;17.10;87.90;;;;;;4096023;28;20062;-67
2022/10/03 00:14:14;;;;;;;0.00;0.00;;;17.10;87.90;;;;;;4081056;29;20059;-67
2022/10/03 00:17:01;;;;;;;0.00;0.00;;;17.00;87.80;;;;;;4095883;28;20114;-67
2022/10/03 00:19:50;;;;;;;0.00;0.00;;;17.00;87.90;;;;;;4096343;28;20062;-67
2022/10/03 00:22:39;;;;;;;0.38;0.38;;;17.00;87.80;;;;;;4095940;28;20063;-67
2022/10/03 00:25:29;;;;;;;0.00;0.00;;;17.00;88.70;;;;;;4103651;28;20053;-66
2022/10/03 00:28:23;;;;;;;0.00;0.00;;;17.00;87.80;;;;;;4112006;28;20060;-66
2022/10/03 00:31:13;;;;;;;0.00;0.00;;;17.00;87.80;;;;;;4111413;28;20070;-66
2022/10/03 00:34:04;;;;;;;0.00;0.00;;;17.00;87.90;;;;;;4095577;28;20058;-67
2022/10/03 00:37:05;;;;;;;0.20;0.20;;;17.00;87.90;;;;;;4087996;28;20089;-67
2022/10/03 00:40:01;;;;;;;0.00;0.00;;;17.00;87.90;;;;;;4095616;28;20093;-68
2022/10/03 00:43:18;;;;;;;0.00;0.00;;;17.00;88.00;;;;;;4095394;28;20078;-67
2022/10/03 00:46:30;;;;;;;0.00;0.00;;;17.00;88.00;;;;;;4095084;28;20050;-67
2022/10/03 00:49:44;;;;;;;4.75;2.10;;;17.00;88.10;;;;;;4094946;28;20093;-67
2022/10/03 00:53:01;;;;;;;0.00;0.00;;;17.00;88.10;;;;;;4083184;28;20046;-67
2022/10/03 00:55:58;;;;;;;0.00;0.00;;;17.00;88.00;;;;;;4096941;28;20061;-68
2022/10/03 00:58:57;;;;;;;0.00;0.00;;;17.00;88.10;;;;;;4110822;28;20061;-67
2022/10/03 01:01:45;;;;;;;0.00;0.00;;;16.90;88.10;;;;;;4108065;28;20070;-67
2022/10/03 01:04:47;;;;;;;0.00;0.00;;;16.90;88.00;;;;;;4095359;28;20065;-67
2022/10/03 01:07:47;;;;;;;0.00;0.00;;;16.90;88.10;;;;;;4095105;28;20058;-67
2022/10/03 01:10:35;;;;;;;0.00;0.00;;;16.90;88.10;;;;;;4090095;28;20073;-67
2022/10/03 01:13:34;;;;;;;0.00;0.00;;;17.00;88.20;;;;;;4079349;29;20102;-67
2022/10/03 01:16:25;;;;;;;0.00;0.00;;;16.90;88.00;;;;;;4078730;29;20058;-67
2022/10/03 01:19:27;;;;;;;0.00;0.00;;;16.90;88.00;;;;;;4078510;29;20507;-67
2022/10/03 01:22:28;;;;;;;0.00;0.00;;;16.90;88.00;;;;;;4087427;28;20182;-67
2022/10/03 01:25:16;;;;;;;0.00;0.00;;;16.90;88.10;;;;;;4093878;28;20434;-68
2022/10/03 01:31:09;;;;;;;0.00;0.00;;;16.90;88.20;;;;;;4081258;28;20054;-67
2022/10/03 01:34:00;;;;;;;0.05;0.05;;;16.90;88.30;;;;;;4095215;28;20049;-67
2022/10/03 01:36:48;;;;;;;;;;;16.90;88.20;;;;;;4079032;29;20067;-66
2022/10/03 01:39:36;;;;;;;0.00;0.00;;;16.90;88.20;;;;;;4088073;28;19934;-67
2022/10/03 01:42:31;;;;;;;0.52;0.52;;;16.90;88.20;;;;;;4094620;28;20055;-68
2022/10/03 01:45:25;;;;;;;0.00;0.00;;;16.90;88.30;;;;;;4094050;28;20065;-67
2022/10/03 01:48:12;;;;;;;0.00;0.00;;;16.90;88.30;;;;;;4094188;28;20510;-67
2022/10/03 01:51:01;;;;;;;0.57;0.57;;;16.90;88.40;;;;;;4094610;28;20050;-68
2022/10/03 01:53:58;;;;;;;0.00;0.00;;;16.90;88.50;;;;;;4094700;28;20062;-68
2022/10/03 01:56:46;;;;;;;0.00;0.00;;;16.90;88.50;;;;;;4078212;29;20416;-68
2022/10/03 01:59:41;;;;;;;0.00;0.00;;;16.90;88.40;;;;;;4079110;29;20058;-67
2022/10/03 02:02:31;;;;;;;0.00;0.00;;;16.90;88.50;;;;;;4090289;28;20112;-67
2022/10/03 02:05:19;;;;;;;0.00;0.00;;;16.90;88.40;;;;;;4082603;28;20054;-67
2022/10/03 02:08:05;;;;;;;0.00;0.00;;;16.90;88.50;;;;;;4093805;28;20062;-68
2022/10/03 02:10:52;;;;;;;0.00;0.00;;;16.90;88.50;;;;;;4094246;28;20151;-68
2022/10/03 02:13:43;;;;;;;0.00;0.00;;;16.90;88.50;;;;;;4078211;29;20066;-67
2022/10/03 02:16:33;;;;;;;0.05;0.05;;;16.90;88.50;;;;;;4077828;29;20062;-66
2022/10/03 02:19:22;;;;;;;0.00;0.00;;;16.90;88.60;;;;;;4078439;29;20114;-67
2022/10/03 02:22:15;;;;;;;0.40;0.40;;;16.90;88.60;;;;;;4087261;28;20050;-66
2022/10/03 02:25:12;;;;;;;0.00;0.00;;;16.80;88.50;;;;;;4098405;28;20502;-66
2022/10/03 02:28:19;;;;;;;0.00;0.00;;;16.90;88.60;;;;;;4110125;28;20058;-66
2022/10/03 02:31:21;;;;;;;0.05;0.05;;;16.90;88.70;;;;;;4108952;28;20093;-67
2022/10/03 02:34:20;;;;;;;0.00;0.00;;;16.90;88.80;;;;;;4093891;28;20054;-66
2022/10/03 02:37:36;;;;;;;0.00;0.00;;;16.90;88.70;;;;;;4093714;28;20124;-66
2022/10/03 02:40:40;;;;;;;0.30;0.30;;;16.80;88.70;;;;;;4094282;28;20152;-70
2022/10/03 02:43:49;;;;;;;0.00;0.00;;;16.90;88.70;;;;;;4078222;29;20075;-66
2022/10/03 02:47:24;;;;;;;0.03;0.03;;;16.80;88.70;;;;;;4077857;29;20105;-68
2022/10/03 02:50:44;;;;;;;0.10;0.10;;;16.90;88.80;;;;;;4077738;29;20059;-71
2022/10/03 02:54:02;;;;;;;0.00;0.00;;;16.80;88.70;;;;;;4084328;28;20062;-68
2022/10/03 02:57:05;;;;;;;0.00;0.00;;;16.80;88.70;;;;;;4070216;28;20051;-67
2022/10/03 03:00:09;;;;;;;1.55;0.85;;;16.80;88.80;;;;;;4093336;28;20114;-67
2022/10/03 03:03:17;;;;;;;0.00;0.00;;;16.80;88.70;;;;;;4093766;28;20086;-67
2022/10/03 03:06:39;;;;;;;0.00;0.00;;;16.80;88.70;;;;;;4093892;28;20049;-66
2022/10/03 03:09:57;;;;;;;0.00;0.00;;;16.80;88.80;;;;;;4093282;28;20507;-66
2022/10/03 03:13:26;;;;;;;0.00;0.00;;;16.80;88.80;;;;;;4093458;28;20047;-68
2022/10/03 03:16:39;;;;;;;0.00;0.00;;;16.80;88.80;;;;;;4096725;28;20049;-67
2022/10/03 03:19:36;;;;;;;0.00;0.00;;;16.80;88.80;;;;;;4093957;28;20435;-67
2022/10/03 03:22:35;;;;;;;0.00;0.00;;;16.70;88.80;;;;;;4082144;28;20125;-67
2022/10/03 03:25:38;;;;;;;1.98;1.05;;;16.80;88.90;;;;;;4103321;28;20054;-67
2022/10/03 03:28:32;;;;;;;0.00;0.00;;;16.80;88.90;;;;;;4112293;28;20058;-66
2022/10/03 03:31:21;;;;;;;0.00;0.00;;;16.80;89.30;;;;;;4102313;28;20054;-67
2022/10/03 03:34:09;;;;;;;0.00;0.00;;;16.70;89.20;;;;;;4096602;28;20129;-66
2022/10/03 03:36:59;;;;;;;0.00;0.00;;;16.80;89.30;;;;;;4096776;28;20129;-66
2022/10/03 03:39:56;;;;;;;0.00;0.00;;;16.80;89.30;;;;;;4096622;28;20514;-66
2022/10/03 03:42:56;;;;;;;0.00;0.00;;;16.80;90.00;;;;;;4080658;29;20070;-66
2022/10/03 03:45:47;;;;;;;0.00;0.00;;;16.80;89.40;;;;;;4096241;28;20264;-66
2022/10/03 03:48:43;;;;;;;0.00;0.00;;;16.80;89.30;;;;;;4096486;28;20054;-67
2022/10/03 03:51:33;;;;;;;0.00;0.00;;;16.80;89.30;;;;;;4095459;28;20054;-68
2022/10/03 03:54:40;;;;;;;0.00;0.00;;;16.80;89.30;;;;;;4080686;29;20050;-67
2022/10/03 03:57:55;;;;;;;0.00;0.00;;;16.80;89.30;;;;;;4080671;29;20230;-67
2022/10/03 04:00:48;;;;;;;0.00;0.00;;;16.80;89.30;;;;;;4088736;28;20493;-67
2022/10/03 04:03:40;;;;;;;0.00;0.00;;;16.80;89.30;;;;;;4094798;28;20066;-67
2022/10/03 04:06:45;;;;;;;0.00;0.00;;;16.80;89.40;;;;;;4096043;28;20058;-66
2022/10/03 04:09:46;;;;;;;0.00;0.00;;;16.80;89.40;;;;;;4095714;28;20214;-68
2022/10/03 04:12:47;;;;;;;0.00;0.00;;;16.80;89.50;;;;;;4080072;29;20107;-66
2022/10/03 04:15:42;;;;;;;;;;;16.80;89.50;;;;;;4080672;29;20058;-66
2022/10/03 04:18:57;;;;;;;0.00;0.00;;;16.70;89.40;;;;;;4080327;29;20306;-68
2022/10/03 04:21:54;;;;;;;0.00;0.00;;;16.70;89.40;;;;;;4091941;28;20696;-67
2022/10/03 04:25:14;;;;;;;0.00;0.00;;;16.80;89.60;;;;;;4084626;28;20089;-67
2022/10/03 04:28:37;;;;;;;0.00;0.00;;;16.70;89.50;;;;;;4101504;28;20140;-67
2022/10/03 04:31:37;;;;;;;0.00;0.00;;;16.80;89.60;;;;;;4095247;28;20649;-66
2022/10/03 04:34:33;;;;;;;0.00;0.00;;;16.70;89.50;;;;;;4095450;28;20050;-66
2022/10/03 04:37:23;;;;;;;0.00;0.00;;;16.80;89.60;;;;;;4095654;28;20062;-66
2022/10/03 04:40:25;;;;;;;0.00;0.00;;;16.70;89.50;;;;;;4095164;28;20054;-66
2022/10/03 04:43:13;;;;;;;0.10;0.10;;;16.70;89.50;;;;;;4095049;28;20066;-66
2022/10/03 04:46:14;;;;;;;0.00;0.00;;;16.70;89.50;;;;;;4095702;28;20061;-66
2022/10/03 04:49:04;;;;;;;0.30;0.30;;;16.70;89.60;;;;;;4080007;29;20067;-66
2022/10/03 04:51:53;;;;;;;0.30;0.30;;;16.70;89.50;;;;;;4094953;28;20693;-67
2022/10/03 04:54:49;;;;;;;0.00;0.00;;;16.70;89.60;;;;;;4097587;28;20066;-67
2022/10/03 04:57:36;;;;;;;0.00;0.00;;;16.70;89.60;;;;;;4102627;28;20054;-67
2022/10/03 05:00:24;;;;;;;0.70;0.65;;;16.70;89.70;;;;;;4095706;28;20105;-67
2022/10/03 05:03:13;;;;;;;0.00;0.00;;;16.70;89.70;;;;;;4095470;28;20124;-67
2022/10/03 05:05:59;;;;;;;0.00;0.00;;;16.70;89.70;;;;;;4095102;28;20134;-66
2022/10/03 05:08:49;;;;;;;0.00;0.00;;;16.70;89.70;;;;;;4079815;29;20405;-66
2022/10/03 05:11:42;;;;;;;0.00;0.00;;;16.70;89.70;;;;;;4079763;29;20130;-63
2022/10/03 05:14:33;;;;;;;0.13;0.13;;;16.70;89.60;;;;;;4079329;29;20452;-63
2022/10/03 05:17:19;;;;;;;0.00;0.00;;;16.70;89.60;;;;;;4084465;28;20190;-63
2022/10/03 05:20:32;;;;;;;0.00;0.00;;;16.70;89.70;;;;;;4095206;28;20504;-63
2022/10/03 05:23:28;;;;;;;0.00;0.00;;;16.70;89.70;;;;;;4095077;28;20182;-62
2022/10/03 05:26:20;;;;;;;0.00;0.00;;;16.70;89.70;;;;;;4107629;28;20074;-63
2022/10/03 05:29:31;;;;;;;0.00;0.00;;;16.70;89.70;;;;;;4079257;29;20055;-63
2022/10/03 05:32:23;;;;;;;0.00;0.00;;;16.70;89.70;;;;;;4078909;29;20075;-65
2022/10/03 05:35:25;;;;;;;0.00;0.00;;;16.70;89.60;;;;;;4090891;28;20078;-63
2022/10/03 05:38:21;;;;;;;;;;;16.70;89.50;;;;;;4095038;28;20062;-63
2022/10/03 05:41:04;;;;;;;0.00;0.00;;;16.70;89.60;;;;;;4094637;28;19969;-64
2022/10/03 05:43:57;;;;;;;0.00;0.00;;;16.70;89.70;;;;;;4094327;28;20126;-63
2022/10/03 05:46:59;;;;;;;0.00;0.00;;;16.70;90.00;;;;;;4094287;28;20073;-64
2022/10/03 05:49:54;;;;;;;0.00;0.00;;;16.70;90.00;;;;;;4094232;28;20183;-63
2022/10/03 05:53:01;;;;;;;0.00;0.00;;;16.70;90.00;;;;;;4087724;28;20058;-63
2022/10/03 05:55:59;;;;;;;2.63;1.38;;;16.80;90.10;;;;;;4095151;28;20054;-63
2022/10/03 05:59:09;;;;;;;0.00;0.00;;;16.70;90.00;;;;;;4078221;29;20058;-64
2022/10/03 06:02:09;;;;;;;0.00;0.00;;;16.70;89.90;;;;;;4083506;28;20062;-63
2022/10/03 06:05:11;;;;;;;0.63;0.63;;;16.70;89.60;;;;;;4093710;28;20062;-64
2022/10/03 06:08:19;;;;;;;0.00;0.00;;;16.70;89.50;;;;;;4093499;28;20207;-63
2022/10/03 06:11:13;;;;;;;0.70;0.70;;;16.70;89.50;;;;;;4070755;28;20062;-63
2022/10/03 06:14:23;;;;;;;0.00;0.00;;;16.70;89.20;;;;;;4078068;29;20082;-64
2022/10/03 06:17:32;;;;;;;0.00;0.00;;;16.70;89.10;;;;;;4078476;29;20384;-64
2022/10/03 06:20:40;;;;;;;0.00;0.00;;;16.70;88.80;;;;;;4080800;28;20130;-64
2022/10/03 06:23:54;;;;;;;0.00;0.00;;;16.60;88.60;;;;;;4094452;28;20143;-63
2022/10/03 06:27:02;;;;;;;0.00;0.00;;;16.60;88.50;;;;;;4093911;28;20547;-64
2022/10/03 06:30:10;;;;;;;0.00;0.00;;;16.70;88.80;;;;;;4094287;28;20061;-64
2022/10/03 06:33:33;;;;;;;0.00;0.00;;;16.70;89.20;;;;;;4092859;28;20392;-63
2022/10/03 06:36:38;;;;;;;0.00;0.00;;;16.70;89.60;;;;;;4081901;28;20054;-64
2022/10/03 06:40:00;;;;;;;0.00;0.00;;;16.70;89.60;;;;;;4094033;28;20066;-64
2022/10/03 06:43:11;;;;;;;0.00;0.00;;;16.70;89.30;;;;;;4078235;29;20428;-64
2022/10/03 06:46:20;;;;;;;0.00;0.00;;;16.80;89.10;;;;;;4078234;29;20051;-64
2022/10/03 06:49:32;;;;;;;0.00;0.00;;;16.70;88.90;;;;;;4081315;29;20226;-64
2022/10/03 06:52:37;;;;;;;0.00;0.00;;;16.70;88.90;;;;;;4080957;29;20058;-62
2022/10/03 06:55:42;;;;;;;4.95;1.65;;;16.70;88.80;;;;;;4096283;28;20510;-62
2022/10/03 06:58:49;;;;;;;0.00;0.00;;;16.60;88.80;;;;;;4112859;28;20415;-62
2022/10/03 07:01:56;;;;;;;0.00;0.00;;;16.60;88.90;;;;;;4098625;28;20106;-63
2022/10/03 07:05:34;;;;;;;0.00;0.00;;;16.70;89.00;;;;;;4089621;28;20055;-62
2022/10/03 07:08:44;;;;;;;0.20;0.20;;;16.60;89.00;;;;;;4047795;29;20522;-62
2022/10/03 07:11:44;;;;;;;0.00;0.00;;;16.60;88.90;;;;;;4060095;29;20100;-62
2022/10/03 07:15:03;;;;;;;0.00;0.00;;;16.60;89.00;;;;;;4096636;28;20130;-62
2022/10/03 07:18:11;;;;;;;0.00;0.00;;;16.60;88.90;;;;;;4096896;28;20137;-62
2022/10/03 07:21:25;;;;;;;0.00;0.00;;;16.60;88.90;;;;;;4096825;28;20623;-63
2022/10/03 07:24:32;;;;;;;0.13;0.13;;;16.60;88.90;;;;;;4096759;28;20062;-62
2022/10/03 07:27:35;;;;;;;0.00;0.00;;;16.60;89.00;;;;;;4097987;28;20061;-63
2022/10/03 07:30:20;;;;;;;0.05;0.05;;;16.60;89.00;;;;;;4096481;28;20045;-62
2022/10/03 07:33:36;;;;;;;0.00;0.00;;;16.60;89.10;;;;;;4096156;28;20406;-64
2022/10/03 07:40:17;;;;;;;0.00;0.00;;;16.70;89.00;;;;;;4096295;28;20054;-62
2022/10/03 07:43:25;;;;;;;0.00;0.00;;;16.70;88.80;;;;;;4092553;28;20046;-62
2022/10/03 07:46:33;;;;;;;0.00;0.00;;;16.80;88.80;;;;;;4080555;29;20051;-62
2022/10/03 07:49:39;;;;;;;0.00;0.00;;;16.80;88.70;;;;;;4104283;28;20049;-62
2022/10/03 07:52:46;;;;;;;0.00;0.00;;;16.80;88.50;;;;;;4090454;28;20641;-62
2022/10/03 07:55:57;;;;;;;0.00;0.00;;;16.90;88.40;;;;;;4096201;28;20165;-61
2022/10/03 07:58:55;;;;;;;0.00;0.00;;;17.00;88.50;;;;;;4096020;28;20134;-62
2022/10/03 08:01:55;;;;;;;0.00;0.00;;;17.00;88.70;;;;;;4095477;28;20054;-63
2022/10/03 08:04:58;;;;;;;0.00;0.00;;;17.10;88.50;;;;;;4103684;28;20096;-63
2022/10/03 08:08:07;;;;;;;0.00;0.00;;;17.10;88.10;;;;;;4105226;28;20530;-63
2022/10/03 08:11:27;;;;;;;0.00;0.00;;;17.20;88.80;;;;;;4092026;28;20137;-62
2022/10/03 08:14:18;;;;;;;0.00;0.00;;;17.20;87.80;;;;;;4093368;28;20050;-62
2022/10/03 08:17:35;;;;;;;0.00;0.00;;;17.20;87.70;;;;;;4095008;28;20105;-66
2022/10/03 08:20:48;;;;;;;0.00;0.00;;;17.30;87.80;;;;;;4104205;28;20049;-65
2022/10/03 08:23:53;;;;;;;0.00;0.00;;;17.30;87.70;;;;;;4078488;29;20059;-65
2022/10/03 08:26:54;;;;;;;0.00;0.00;;;17.30;87.70;;;;;;4092554;28;20066;-65
2022/10/03 08:29:58;;;;;;;0.00;0.00;;;17.30;87.60;;;;;;4092072;28;20129;-65
2022/10/03 08:33:14;;;;;;;0.10;0.10;;;17.30;87.60;;;;;;4079366;29;20062;-65
2022/10/03 08:36:30;;;;;;;0.00;0.00;;;17.30;87.50;;;;;;4104934;28;20050;-66
2022/10/03 08:39:15;;;;;;;0.00;0.00;;;17.30;87.30;;;;;;4094991;28;20588;-67
2022/10/03 08:42:22;;;;;;;0.00;0.00;;;17.20;86.90;;;;;;4083682;28;20078;-65
2022/10/03 08:45:41;;;;;;;0.00;0.00;;;17.20;86.70;;;;;;4079391;29;20070;-65
2022/10/03 08:48:54;;;;;;;0.00;0.00;;;17.20;86.60;;;;;;4079102;29;20145;-65
2022/10/03 08:52:07;;;;;;;0.00;0.00;;;17.20;86.60;;;;;;4079722;29;20054;-65
2022/10/03 08:55:31;;;;;;;0.00;0.00;;;17.30;86.70;;;;;;4086547;28;20054;-65
2022/10/03 08:58:26;;;;;;;0.00;0.00;;;17.30;86.60;;;;;;4045628;29;20703;-65
2022/10/03 09:01:31;;;;;;;0.10;0.10;;;17.30;86.70;;;;;;4020145;29;20059;-65
2022/10/03 09:04:54;;;;;;;0.00;0.00;;;17.30;86.50;;;;;;4079246;29;20050;-65
2022/10/03 09:08:10;;;;;;;0.00;0.00;;;17.40;86.50;;;;;;4094180;28;20078;-65
2022/10/03 09:11:21;;;;;;;0.00;0.00;;;17.50;86.40;;;;;;4097873;28;20557;-65
2022/10/03 09:14:33;;;;;;;0.00;0.00;;;17.50;86.30;;;;;;4110746;28;20411;-65
2022/10/03 09:17:48;;;;;;;0.00;0.00;;;17.50;86.10;;;;;;4083722;28;20495;-65
2022/10/03 09:21:08;;;;;;;0.00;0.00;;;17.60;85.90;;;;;;4094192;28;20062;-65
2022/10/03 09:24:27;;;;;;;0.00;0.00;;;17.60;85.60;;;;;;4085470;28;20046;-65
2022/10/03 09:27:42;;;;;;;1.02;0.95;;;17.60;85.40;;;;;;4082461;28;20062;-65
2022/10/03 09:30:27;;;;;;;0.00;0.00;;;17.70;85.20;;;;;;4095185;28;20623;-64
2022/10/03 09:33:48;;;;;;;0.00;0.00;;;17.70;85.00;;;;;;4082521;28;20078;-65
2022/10/03 09:37:01;;;;;;;0.00;0.00;;;17.70;84.90;;;;;;4071205;28;20475;-65
2022/10/03 09:40:18;;;;;;;0.13;0.13;;;17.80;84.70;;;;;;4094574;28;20850;-65
2022/10/03 09:43:36;;;;;;;0.32;0.32;;;17.80;84.60;;;;;;4087498;28;20102;-65
2022/10/03 09:46:43;;;;;;;0.00;0.00;;;17.80;84.60;;;;;;4094258;28;20065;-65
2022/10/03 09:50:06;;;;;;;0.00;0.00;;;17.80;84.50;;;;;;4094283;28;20054;-65
2022/10/03 09:53:15;;;;;;;0.00;0.00;;;17.80;84.40;;;;;;4067838;28;20175;-67
2022/10/03 09:56:32;;;;;;;0.00;0.00;;;17.80;84.10;;;;;;4094162;28;20053;-67
2022/10/03 09:59:30;;;;;;;0.00;0.00;;;17.90;84.00;;;;;;4110653;28;20101;-67
2022/10/03 10:02:45;;;;;;;0.00;0.00;;;17.90;83.90;;;;;;4100807;28;20050;-67
2022/10/03 10:06:01;;;;;;;0.00;0.00;;;17.90;83.80;;;;;;4078778;29;20404;-67
2022/10/03 10:09:14;;;;;;;0.47;0.47;;;17.90;83.70;;;;;;4078058;29;20508;-67
2022/10/03 10:12:25;;;;;;;0.00;0.00;;;17.90;83.60;;;;;;4097359;28;20463;-67
2022/10/03 10:15:41;;;;;;;2.90;1.27;;;17.90;83.60;;;;;;4093962;28;20121;-67
2022/10/03 10:18:49;;;;;;;0.00;0.00;;;18.00;83.60;;;;;;4094216;28;20121;-67
2022/10/03 10:21:49;;;;;;;0.00;0.00;;;18.00;83.40;;;;;;4092306;28;20177;-67
2022/10/03 10:24:57;;;;;;;0.10;0.10;;;18.00;84.20;;;;;;4094707;28;20058;-67
2022/10/03 10:28:07;;;;;;;0.00;0.00;;;18.00;83.30;;;;;;4109857;28;20376;-66
2022/10/03 10:31:17;;;;;;;0.00;0.00;;;18.00;83.20;;;;;;4093059;28;20598;-66
2022/10/03 10:34:39;;;;;;;0.00;0.00;;;18.10;83.30;;;;;;4079446;28;20059;-67
2022/10/03 10:38:11;;;;;;;0.38;0.38;;;18.10;83.20;;;;;;4091853;28;20057;-67
2022/10/03 10:41:30;;;;;;;0.00;0.00;;;18.10;83.20;;;;;;4093453;28;20083;-67
2022/10/03 10:45:10;;;;;;;0.20;0.20;;;18.10;83.20;;;;;;4076883;29;20550;-66
2022/10/03 10:48:37;;;;;;;2.40;1.75;;;18.10;83.20;;;;;;4077768;29;20058;-66
2022/10/03 10:52:00;;;;;;;0.00;0.00;;;18.10;83.20;;;;;;4080823;28;20054;-66
2022/10/03 10:55:18;;;;;;;2.13;1.45;;;18.10;83.00;;;;;;4095896;28;20121;-66
2022/10/03 10:58:44;;;;;;;0.10;0.10;;;18.20;83.00;;;;;;4104739;28;20049;-66
2022/10/03 11:02:20;;;;;;;0.00;0.00;;;18.20;82.60;;;;;;4072937;28;20113;-66
2022/10/03 11:05:41;;;;;;;0.00;0.00;;;18.30;82.40;;;;;;4077791;29;20078;-66
2022/10/03 11:09:03;;;;;;;0.00;0.00;;;18.30;82.20;;;;;;4084487;28;20046;-65
2022/10/03 11:12:27;;;;;;;0.00;0.00;;;18.30;82.00;;;;;;4093684;28;20065;-66
2022/10/03 11:15:47;;;;;;;0.00;0.00;;;18.30;82.00;;;;;;4093382;28;20114;-65
2022/10/03 11:19:18;;;;;;;0.00;0.00;;;18.30;81.60;;;;;;4085285;28;20062;-66
2022/10/03 11:22:41;;;;;;;0.43;0.43;;;18.30;81.50;;;;;;4089287;28;20059;-67
2022/10/03 11:25:50;;;;;;;0.00;0.00;;;18.40;81.50;;;;;;4108925;28;20049;-66
2022/10/03 11:29:13;;;;;;;0.00;0.00;;;18.40;81.50;;;;;;4082711;28;20187;-66
2022/10/03 11:32:52;;;;;;;0.00;0.00;;;18.40;81.50;;;;;;4090010;28;20054;-66
2022/10/03 11:36:12;;;;;;;0.10;0.10;;;18.50;81.50;;;;;;4095934;28;20069;-67
2022/10/03 11:39:01;;;;;;;0.00;0.00;;;18.50;81.60;;;;;;4095127;28;20054;-66
2022/10/03 11:41:51;;;;;;;0.00;0.00;;;18.50;81.50;;;;;;4091882;28;20126;-67
2022/10/03 11:44:34;;;;;;;0.10;0.10;;;18.50;81.60;;;;;;4096040;28;20098;-67
2022/10/03 11:47:38;;;;;;;0.00;0.00;;;18.60;82.20;;;;;;4096647;28;20385;-67
2022/10/03 11:50:35;;;;;;;0.00;0.00;;;18.60;81.30;;;;;;4096437;28;20126;-67
2022/10/03 11:53:41;;;;;;;0.00;0.00;;;18.60;81.40;;;;;;4096113;28;20062;-67
2022/10/03 11:56:36;;;;;;;0.00;0.00;;;18.60;81.30;;;;;;4096047;28;20093;-67
2022/10/03 11:59:45;;;;;;;0.00;0.00;;;18.60;81.20;;;;;;4095772;28;20066;-65
2022/10/03 12:02:47;;;;;;;0.15;0.15;;;18.70;81.10;;;;;;4096183;28;20053;-63
2022/10/03 12:05:41;;;;;;;0.05;0.05;;;18.70;80.90;;;;;;4097634;28;20183;-63
2022/10/03 12:11:33;;;;;;;0.00;0.00;;;18.70;80.80;;;;;;4096298;28;20058;-63
2022/10/03 12:14:24;;;;;;;0.00;0.00;;;18.70;80.80;;;;;;4096079;28;20054;-62
2022/10/03 12:17:11;;;;;;;0.00;0.00;;;18.70;80.70;;;;;;4083650;28;20408;-64
2022/10/03 12:20:01;;;;;;;0.00;0.00;;;18.70;80.60;;;;;;4096362;28;20186;-62
2022/10/03 12:22:48;;;;;;;0.00;0.00;;;18.70;80.50;;;;;;4096057;28;20046;-64
2022/10/03 12:25:35;;;;;;;0.00;0.00;;;18.70;80.40;;;;;;4095842;28;20049;-64
2022/10/03 12:28:21;;;;;;;1.00;1.00;;;18.80;80.40;;;;;;4095735;28;20503;-63
2022/10/03 12:31:12;;;;;;;0.00;0.00;;;18.80;80.50;;;;;;4096042;28;20058;-64
2022/10/03 12:34:08;;;;;;;0.00;0.00;;;18.80;80.40;;;;;;4097143;28;20058;-65
2022/10/03 12:36:55;;;;;;;0.00;0.00;;;18.80;80.30;;;;;;4098053;28;20047;-64
2022/10/03 12:39:44;;;;;;;0.00;0.00;;;18.80;80.20;;;;;;4095996;28;20137;-64
2022/10/03 12:42:30;;;;;;;0.00;0.00;;;18.80;80.40;;;;;;4092196;28;20054;-64
2022/10/03 12:45:22;;;;;;;0.00;0.00;;;18.80;80.20;;;;;;4094792;28;20134;-64
2022/10/03 12:48:36;;;;;;;0.00;0.00;;;18.70;80.20;;;;;;4079410;29;20127;-65
2022/10/03 12:51:25;;;;;;;0.10;0.10;;;18.70;80.30;;;;;;4079650;29;20463;-64
2022/10/03 12:54:17;;;;;;;0.00;0.00;;;18.80;80.50;;;;;;4080047;29;20051;-65
2022/10/03 12:57:18;;;;;;;0.00;0.00;;;18.80;80.30;;;;;;4095324;28;20066;-65
2022/10/03 13:00:05;;;;;;;0.00;0.00;;;18.80;80.50;;;;;;4095296;28;20167;-65
2022/10/03 13:03:01;;;;;;;0.00;0.00;;;18.80;80.60;;;;;;4095691;28;20053;-64
2022/10/03 13:06:04;;;;;;;0.00;0.00;;;18.80;80.70;;;;;;4104671;28;20086;-65
2022/10/03 13:09:03;;;;;;;0.00;0.00;;;18.80;80.10;;;;;;4094968;28;20134;-64
2022/10/03 13:11:55;;;;;;;0.00;0.00;;;18.80;81.10;;;;;;4094686;28;20186;-65
2022/10/03 13:15:02;;;;;;;0.10;0.10;;;18.80;80.40;;;;;;4079065;29;20070;-65
2022/10/03 13:17:51;;;;;;;0.00;0.00;;;18.80;81.20;;;;;;4078733;29;20063;-65
2022/10/03 13:20:35;;;;;;;0.00;0.00;;;18.80;80.50;;;;;;4067121;29;20587;-65
2022/10/03 13:23:23;;;;;;;0.00;0.00;;;18.80;81.60;;;;;;4079516;29;20089;-64
2022/10/03 13:26:11;;;;;;;0.00;0.00;;;18.80;80.90;;;;;;4094812;28;20054;-65
2022/10/03 13:29:22;;;;;;;0.00;0.00;;;18.80;80.90;;;;;;4094523;28;20054;-64
2022/10/03 13:32:15;;;;;;;0.00;0.00;;;18.80;80.90;;;;;;4094625;28;20054;-64
2022/10/03 13:38:27;;;;;;;0.00;0.00;;;18.80;80.20;;;;;;4110858;28;20089;-65
2022/10/03 13:41:24;;;;;;;1.55;1.10;;;18.80;80.30;;;;;;4098975;28;20101;-65
2022/10/03 13:44:13;;;;;;;0.00;0.00;;;18.80;80.60;;;;;;4094496;28;20519;-65
2022/10/03 13:47:02;;;;;;;0.00;0.00;;;18.80;80.50;;;;;;4094555;28;20404;-64
2022/10/03 13:49:51;;;;;;;0.00;0.00;;;18.80;81.40;;;;;;4086414;28;20066;-65
2022/10/03 13:52:40;;;;;;;1.65;0.80;;;18.80;80.60;;;;;;4094430;28;20062;-65
2022/10/03 13:55:30;;;;;;;0.00;0.00;;;18.80;80.60;;;;;;4078847;29;20632;-65
2022/10/03 13:58:23;;;;;;;2.75;2.13;;;18.80;80.60;;;;;;4078561;29;20540;-64
2022/10/03 14:01:33;;;;;;;0.00;0.00;;;18.80;80.70;;;;;;4085926;28;21584;-64
2022/10/03 14:04:45;;;;;;;0.00;0.00;;;18.80;80.70;;;;;;4097993;28;20058;-67
2022/10/03 14:07:41;;;;;;;0.00;0.00;;;18.80;81.60;;;;;;4094231;28;20110;-69
2022/10/03 14:10:54;;;;;;;0.00;0.00;;;18.80;80.60;;;;;;4093803;28;20809;-67
2022/10/03 14:13:52;;;;;;;0.00;0.00;;;18.80;80.40;;;;;;4093144;28;20408;-65
2022/10/03 14:16:37;;;;;;;0.52;0.52;;;18.80;80.70;;;;;;4077893;29;20187;-65
2022/10/03 14:19:26;;;;;;;0.00;0.00;;;18.80;80.70;;;;;;4088819;28;20058;-65
2022/10/03 14:22:20;;;;;;;0.00;0.00;;;18.80;80.70;;;;;;4094690;28;20070;-64
2022/10/03 14:25:17;;;;;;;0.00;0.00;;;18.80;80.60;;;;;;4093941;28;20517;-65
2022/10/03 14:28:07;;;;;;;0.00;0.00;;;18.90;80.70;;;;;;4094230;28;20186;-64
2022/10/03 14:31:00;;;;;;;0.00;0.00;;;18.80;80.70;;;;;;4093963;28;20050;-64
2022/10/03 14:33:51;;;;;;;0.00;0.00;;;18.80;80.60;;;;;;4094129;28;20053;-64
2022/10/03 14:36:39;;;;;;;0.00;0.00;;;18.80;80.60;;;;;;4092882;28;20062;-64
2022/10/03 14:39:31;;;;;;;0.00;0.00;;;18.80;81.50;;;;;;4078498;29;20493;-65
2022/10/03 14:42:38;;;;;;;0.00;0.00;;;18.80;80.70;;;;;;4084671;28;20145;-65
2022/10/03 14:45:25;;;;;;;0.00;0.00;;;18.80;80.70;;;;;;4079741;28;20050;-64
2022/10/03 14:48:13;;;;;;;0.00;0.00;;;18.80;80.80;;;;;;4095423;28;20062;-65
2022/10/03 14:51:06;;;;;;;0.00;0.00;;;18.80;80.80;;;;;;4078219;29;20408;-65
2022/10/03 14:53:54;;;;;;;0.00;0.00;;;18.80;80.90;;;;;;4078193;29;20552;-66
2022/10/03 14:56:43;;;;;;;0.00;0.00;;;18.80;80.90;;;;;;4077933;29;20062;-66
2022/10/03 14:59:28;;;;;;;0.00;0.00;;;18.80;81.00;;;;;;4084413;28;20057;-66
2022/10/03 15:02:29;;;;;;;0.00;0.00;;;18.80;81.00;;;;;;4093784;28;20115;-66
2022/10/03 15:05:14;;;;;;;0.00;0.00;;;18.80;81.00;;;;;;4096083;28;20059;-64
2022/10/03 15:07:56;;;;;;;0.05;0.05;;;18.80;81.00;;;;;;4078820;29;20362;-64
2022/10/03 15:10:37;;;;;;;0.30;0.30;;;18.80;81.90;;;;;;4096771;28;20190;-64
2022/10/03 15:13:19;;;;;;;;;;;18.80;81.20;;;;;;4097680;28;20050;-65
2022/10/03 15:16:02;;;;;;;0.00;0.00;;;18.80;81.20;;;;;;4097350;28;19928;-65
2022/10/03 15:18:51;;;;;;;0.00;0.00;;;18.80;81.20;;;;;;4096682;28;20053;-64
2022/10/03 15:21:32;;;;;;;0.00;0.00;;;18.80;81.30;;;;;;4096874;28;20046;-62
2022/10/03 15:24:18;;;;;;;;;;;18.80;81.30;;;;;;4097025;28;20058;-62
2022/10/03 15:27:08;;;;;;;0.00;0.00;;;18.80;82.30;;;;;;4086226;28;19984;-62
2022/10/03 15:29:54;;;;;;;0.00;0.00;;;18.80;81.30;;;;;;4096500;28;20054;-62
2022/10/03 15:32:42;;;;;;;0.00;0.00;;;18.80;81.40;;;;;;4096471;28;20058;-63
2022/10/03 15:35:26;;;;;;;0.10;0.10;;;18.80;81.40;;;;;;4108813;28;20170;-62
2022/10/03 15:38:11;;;;;;;0.00;0.00;;;18.80;81.50;;;;;;4097946;28;20101;-62
2022/10/03 15:41:04;;;;;;;0.00;0.00;;;18.80;81.50;;;;;;4095684;28;20182;-63
2022/10/03 15:43:55;;;;;;;0.00;0.00;;;18.80;81.50;;;;;;4095505;28;20858;-63
2022/10/03 15:46:43;;;;;;;0.00;0.00;;;18.80;81.60;;;;;;4095227;28;20054;-63
2022/10/03 15:49:30;;;;;;;0.00;0.00;;;18.90;81.70;;;;;;4096311;28;20069;-63
2022/10/03 15:52:17;;;;;;;0.00;0.00;;;18.80;81.60;;;;;;4096440;28;20590;-64
2022/10/03 15:55:04;;;;;;;0.00;0.00;;;18.80;81.60;;;;;;4095842;28;20157;-64
2022/10/03 15:57:58;;;;;;;0.00;0.00;;;18.80;81.70;;;;;;4084115;28;20073;-65